Time;durP1;ratioP1;P1;durP2;ratioP2;P2;SDS_P1;SDS_P2;PMS_P1;PMS_P2;Temp;Humidity;BMP_temperature;BMP_pressure;BME280_temperature;BME280_humidity;BME280_pressure;Samples;Min_cycle;Max_cycle;Signal;HPM_P1;HPM_P2
2024/02/17 00:00:29;;;;;;;7.00;5.72;;;13.60;70.80;15.40;102194.00;;;;5043780;28;20227;-78
2024/02/17 00:02:56;;;;;;;8.23;6.30;;;13.60;70.70;15.40;102205.00;;;;5051835;28;20275;-78
2024/02/17 00:05:25;;;;;;;10.32;6.28;;;13.60;70.70;15.40;102205.00;;;;5052899;28;20238;-78
2024/02/17 00:07:52;;;;;;;7.55;5.93;;;13.60;70.70;15.40;102206.00;;;;5034462;28;20284;-78
2024/02/17 00:10:20;;;;;;;8.32;6.05;;;13.60;70.70;15.40;102206.00;;;;5034006;28;20232;-78
2024/02/17 00:12:47;;;;;;;7.25;6.43;;;13.70;70.80;15.40;102212.00;;;;5043131;28;20424;-78
2024/02/17 00:15:14;;;;;;;7.97;6.45;;;13.70;70.80;15.40;102216.00;;;;5036303;28;20658;-77
2024/02/17 00:17:41;;;;;;;9.75;6.93;;;13.70;70.80;15.50;102218.00;;;;5033393;28;20254;-78
2024/02/17 00:20:10;;;;;;;9.90;6.40;;;13.70;70.90;15.50;102222.00;;;;5043422;28;20237;-77
2024/02/17 00:22:38;;;;;;;9.38;6.78;;;13.70;70.90;15.50;102221.00;;;;5035059;28;20247;-78
2024/02/17 00:25:06;;;;;;;12.13;6.68;;;13.70;70.90;15.50;102217.00;;;;5042710;28;20649;-78
2024/02/17 00:27:33;;;;;;;9.88;6.65;;;13.70;70.90;15.50;102221.00;;;;5038871;28;20222;-78
2024/02/17 00:30:04;;;;;;;8.95;6.55;;;13.70;70.90;15.50;102229.00;;;;5034292;28;20741;-78
2024/02/17 00:32:31;;;;;;;10.05;6.65;;;13.70;70.90;15.50;102230.00;;;;5032252;28;20200;-78
2024/02/17 00:34:59;;;;;;;8.93;6.32;;;13.70;70.90;15.50;102226.00;;;;5036767;28;20716;-78
2024/02/17 00:37:26;;;;;;;7.80;6.25;;;13.80;71.00;15.50;102231.00;;;;5032573;28;20262;-75
2024/02/17 00:39:55;;;;;;;8.48;6.38;;;13.80;70.90;15.50;102241.00;;;;5031611;28;20591;-76
2024/02/17 00:42:22;;;;;;;7.93;6.43;;;13.80;70.90;15.50;102244.00;;;;5042771;28;20211;-75
2024/02/17 00:44:49;;;;;;;10.98;5.95;;;13.80;70.90;15.50;102239.00;;;;5047445;28;20200;-76
2024/02/17 00:47:16;;;;;;;11.85;6.38;;;13.80;70.90;15.60;102238.00;;;;5050696;28;20196;-76
2024/02/17 00:49:43;;;;;;;9.18;6.25;;;13.80;70.90;15.60;102245.00;;;;5032224;28;20287;-77
2024/02/17 00:52:10;;;;;;;9.93;6.68;;;13.80;70.90;15.60;102248.00;;;;5032464;28;20199;-77
2024/02/17 00:54:37;;;;;;;7.72;6.13;;;13.80;70.90;15.60;102246.00;;;;5042720;28;20593;-77
2024/02/17 00:57:06;;;;;;;8.00;6.35;;;13.90;70.90;15.60;102244.00;;;;5041254;28;20291;-76
2024/02/17 00:59:34;;;;;;;9.20;5.63;;;13.90;70.90;15.60;102247.00;;;;5034654;28;20691;-76
2024/02/17 01:02:01;;;;;;;11.07;6.63;;;13.90;70.80;15.60;102247.00;;;;5032901;28;20203;-77
2024/02/17 01:04:28;;;;;;;13.07;5.90;;;13.90;70.80;15.60;102251.00;;;;5044982;28;20660;-76
2024/02/17 01:06:55;;;;;;;11.10;6.68;;;13.90;70.80;15.60;102251.00;;;;5051473;28;20661;-77
2024/02/17 01:09:22;;;;;;;8.30;5.85;;;13.90;70.80;15.60;102255.00;;;;5037598;28;20200;-77
2024/02/17 01:11:49;;;;;;;8.85;6.30;;;13.90;70.70;15.60;102252.00;;;;5052092;28;20203;-76
2024/02/17 01:14:20;;;;;;;10.13;6.60;;;13.90;70.70;15.60;102253.00;;;;5048830;28;20203;-76
2024/02/17 01:16:47;;;;;;;8.43;5.97;;;13.90;70.70;15.60;102259.00;;;;5041700;28;20575;-77
2024/02/17 01:19:14;;;;;;;12.38;6.22;;;13.90;70.70;15.60;102266.00;;;;5044257;28;20266;-76
2024/02/17 01:21:41;;;;;;;9.07;6.25;;;13.90;70.60;15.60;102260.00;;;;5037642;28;20503;-77
2024/02/17 01:24:09;;;;;;;11.60;6.70;;;13.90;70.60;15.60;102269.00;;;;5030233;28;20200;-77
2024/02/17 01:26:36;;;;;;;9.98;5.85;;;14.00;70.60;15.70;102266.00;;;;5031109;28;20646;-77
2024/02/17 01:29:03;;;;;;;11.13;5.82;;;14.00;70.60;15.70;102273.00;;;;5031077;28;20200;-77
2024/02/17 01:31:32;;;;;;;9.85;5.88;;;14.00;71.30;15.70;102280.00;;;;5031584;28;20690;-77
2024/02/17 01:33:59;;;;;;;7.72;5.85;;;14.00;70.60;15.70;102289.00;;;;5030710;28;20669;-76
2024/02/17 01:36:26;;;;;;;8.77;5.93;;;14.00;70.50;15.70;102289.00;;;;5030487;28;20287;-76
2024/02/17 01:38:53;;;;;;;8.10;6.22;;;14.00;70.50;15.70;102288.00;;;;5030236;28;20295;-77
2024/02/17 01:41:20;;;;;;;7.90;5.45;;;14.00;70.50;15.70;102292.00;;;;5031945;28;20254;-77
2024/02/17 01:43:47;;;;;;;8.85;5.85;;;14.00;70.50;15.70;102293.00;;;;5034867;28;20214;-77
2024/02/17 01:46:14;;;;;;;8.30;5.95;;;14.00;70.50;15.70;102299.00;;;;5048681;28;20298;-77
2024/02/17 01:48:44;;;;;;;7.43;5.95;;;14.00;70.50;15.70;102294.00;;;;5041246;28;20197;-77
2024/02/17 01:51:12;;;;;;;9.57;5.15;;;14.00;70.50;15.70;102297.00;;;;5031781;28;20274;-77
2024/02/17 01:53:41;;;;;;;9.63;5.80;;;14.00;70.50;15.70;102297.00;;;;5030445;28;20722;-77
2024/02/17 01:56:10;;;;;;;7.80;5.50;;;14.00;70.50;15.70;102307.00;;;;5039300;28;20196;-76
2024/02/17 01:58:38;;;;;;;9.15;5.78;;;14.00;70.40;15.70;102298.00;;;;5031091;28;20752;-77
2024/02/17 02:01:05;;;;;;;9.70;6.22;;;14.00;70.40;15.70;102305.00;;;;5043103;28;20258;-77
2024/02/17 02:03:32;;;;;;;8.90;5.45;;;14.00;70.50;15.70;102304.00;;;;5043969;28;20734;-77
2024/02/17 02:06:01;;;;;;;7.93;5.68;;;14.00;70.40;15.70;102313.00;;;;5035168;28;20607;-77
2024/02/17 02:08:28;;;;;;;9.23;5.07;;;14.00;70.50;15.80;102314.00;;;;5031099;28;20192;-77
2024/02/17 02:10:56;;;;;;;9.50;5.75;;;14.00;70.40;15.80;102310.00;;;;5039741;28;20202;-77
2024/02/17 02:13:23;;;;;;;7.93;5.90;;;14.00;70.50;15.80;102312.00;;;;5052835;28;20198;-77
2024/02/17 02:15:50;;;;;;;8.48;5.47;;;14.00;70.50;15.80;102325.00;;;;5042845;28;20196;-77
2024/02/17 02:18:17;;;;;;;7.88;5.68;;;14.00;70.50;15.80;102326.00;;;;5050673;28;20278;-77
2024/02/17 02:20:45;;;;;;;8.23;5.43;;;14.00;70.50;15.80;102329.00;;;;5053315;28;20413;-77
2024/02/17 02:23:14;;;;;;;6.97;5.03;;;14.00;70.50;15.80;102329.00;;;;5042899;28;20193;-77
2024/02/17 02:25:50;;;;;;;8.23;5.53;;;14.00;70.50;15.80;102328.00;;;;5045078;28;20201;-77
2024/02/17 02:28:17;;;;;;;7.88;5.78;;;14.00;70.50;15.80;102331.00;;;;5035987;28;20299;-77
2024/02/17 02:30:45;;;;;;;9.43;5.45;;;14.00;70.50;15.80;102338.00;;;;5034256;28;20228;-76
2024/02/17 02:33:12;;;;;;;6.97;5.60;;;14.00;70.50;15.80;102336.00;;;;5035446;28;20235;-77
2024/02/17 02:35:39;;;;;;;8.38;5.82;;;14.00;70.50;15.80;102345.00;;;;5052657;28;20242;-77
2024/02/17 02:38:06;;;;;;;7.70;6.00;;;14.00;70.50;15.80;102352.00;;;;5043133;28;20283;-77
2024/02/17 02:40:33;;;;;;;7.25;5.50;;;14.00;70.50;15.80;102346.00;;;;5051199;28;20267;-77
2024/02/17 02:43:02;;;;;;;8.93;5.97;;;14.00;70.50;15.80;102351.00;;;;5043243;28;20248;-76
2024/02/17 02:45:30;;;;;;;8.05;5.63;;;14.00;70.50;15.80;102351.00;;;;5048277;28;20731;-77
2024/02/17 02:47:58;;;;;;;10.02;6.85;;;14.00;70.50;15.80;102353.00;;;;5037506;28;20188;-76
2024/02/17 02:50:25;;;;;;;8.80;6.10;;;14.00;70.50;15.80;102354.00;;;;5038735;28;20230;-76
2024/02/17 02:52:53;;;;;;;7.25;5.40;;;14.00;70.50;15.80;102356.00;;;;5052681;28;20302;-77
2024/02/17 02:55:20;;;;;;;6.10;5.10;;;14.00;70.50;15.80;102365.00;;;;5041740;28;20240;-77
2024/02/17 02:57:47;;;;;;;7.15;4.93;;;14.00;70.50;15.80;102358.00;;;;5040245;28;20228;-76
2024/02/17 03:00:16;;;;;;;6.25;4.78;;;14.00;70.50;15.80;102360.00;;;;5042931;28;20636;-77
2024/02/17 03:02:43;;;;;;;6.28;4.47;;;14.00;70.60;15.80;102367.00;;;;5045544;28;20261;-77
2024/02/17 03:05:10;;;;;;;7.65;4.95;;;14.00;70.60;15.80;102373.00;;;;5050598;28;20280;-77
2024/02/17 03:07:37;;;;;;;7.90;5.25;;;14.00;70.60;15.80;102373.00;;;;5041273;28;20228;-77
2024/02/17 03:10:06;;;;;;;8.25;4.97;;;14.00;70.60;15.80;102378.00;;;;5033748;28;20275;-77
2024/02/17 03:12:33;;;;;;;6.20;4.40;;;14.00;70.60;15.80;102376.00;;;;5044844;28;20265;-76
2024/02/17 03:15:02;;;;;;;5.53;4.40;;;14.00;70.60;15.80;102378.00;;;;5034351;28;20204;-76
2024/02/17 03:17:30;;;;;;;6.68;4.93;;;14.00;70.60;15.80;102393.00;;;;5034004;28;20192;-77
2024/02/17 03:19:58;;;;;;;7.90;5.72;;;14.00;70.60;15.80;102398.00;;;;5036708;28;20909;-77
2024/02/17 03:22:26;;;;;;;7.28;5.03;;;14.00;70.60;15.80;102395.00;;;;5035215;28;20204;-76
2024/02/17 03:24:53;;;;;;;9.02;5.53;;;14.00;70.60;15.80;102394.00;;;;5047774;28;20203;-77
2024/02/17 03:27:20;;;;;;;7.38;4.78;;;14.00;70.60;15.80;102394.00;;;;5039552;28;20634;-77
2024/02/17 03:29:47;;;;;;;8.88;5.43;;;14.00;70.60;15.70;102390.00;;;;5034017;28;20210;-77
2024/02/17 03:32:14;;;;;;;10.43;5.78;;;14.00;70.60;15.80;102393.00;;;;5034104;28;20571;-77
2024/02/17 03:34:43;;;;;;;7.47;5.57;;;14.00;70.60;15.70;102392.00;;;;5035277;28;20867;-78
2024/02/17 03:37:10;;;;;;;6.68;4.97;;;13.90;70.50;15.80;102397.00;;;;5041619;28;20228;-77
2024/02/17 03:39:38;;;;;;;8.27;5.30;;;14.00;70.60;15.70;102406.00;;;;5033739;28;20333;-76
2024/02/17 03:42:06;;;;;;;8.43;5.22;;;13.90;70.50;15.70;102408.00;;;;5042051;28;20200;-77
2024/02/17 03:44:33;;;;;;;7.85;5.68;;;14.00;70.60;15.70;102416.00;;;;5048359;28;20208;-77
2024/02/17 03:47:00;;;;;;;8.35;5.82;;;14.00;70.60;15.70;102420.00;;;;5033574;28;20290;-77
2024/02/17 03:49:27;;;;;;;7.68;5.63;;;14.00;70.60;15.70;102421.00;;;;5043495;28;20271;-77
2024/02/17 03:51:56;;;;;;;10.70;5.97;;;14.00;70.60;15.70;102425.00;;;;5036133;28;20224;-77
2024/02/17 03:54:23;;;;;;;9.27;5.22;;;14.00;70.60;15.70;102430.00;;;;5049690;28;20604;-79
2024/02/17 03:56:50;;;;;;;7.88;5.55;;;13.90;71.20;15.70;102433.00;;;;5047525;28;20251;-76
2024/02/17 03:59:17;;;;;;;6.88;5.30;;;13.90;70.60;15.70;102445.00;;;;5039881;28;20200;-76
2024/02/17 04:01:44;;;;;;;7.38;5.30;;;13.90;70.60;15.70;102434.00;;;;5040789;28;20220;-77
2024/02/17 04:04:11;;;;;;;6.82;4.78;;;13.90;70.60;15.70;102439.00;;;;5033414;28;20308;-76
2024/02/17 04:06:39;;;;;;;8.80;6.05;;;13.90;70.60;15.70;102428.00;;;;5037635;28;20290;-76
2024/02/17 04:09:07;;;;;;;7.43;4.95;;;13.90;70.70;15.70;102436.00;;;;5044458;28;20772;-75
2024/02/17 04:11:34;;;;;;;7.18;5.18;;;13.90;70.70;15.70;102435.00;;;;5044368;28;20632;-76
2024/02/17 04:14:02;;;;;;;6.78;4.43;;;13.90;70.70;15.70;102444.00;;;;5053193;28;20559;-76
2024/02/17 04:16:28;;;;;;;9.20;5.43;;;13.90;70.80;15.70;102442.00;;;;5036802;28;20580;-76
2024/02/17 04:18:56;;;;;;;8.25;5.03;;;13.90;70.70;15.70;102445.00;;;;5032836;28;20201;-75
2024/02/17 04:21:23;;;;;;;8.80;4.82;;;13.90;70.70;15.70;102449.00;;;;5043248;28;20223;-75
2024/02/17 04:23:52;;;;;;;9.88;5.10;;;13.90;70.70;15.70;102467.00;;;;5049772;28;20257;-75
2024/02/17 04:26:20;;;;;;;7.78;5.07;;;13.90;70.70;15.70;102469.00;;;;5032434;28;20197;-76
2024/02/17 04:28:47;;;;;;;7.80;5.15;;;13.90;70.70;15.70;102473.00;;;;5035605;28;20223;-76
2024/02/17 04:31:15;;;;;;;8.15;5.95;;;14.00;70.70;15.70;102465.00;;;;5032254;28;20224;-76
2024/02/17 04:33:42;;;;;;;6.80;5.05;;;13.90;70.60;15.70;102463.00;;;;5031265;28;20291;-76
2024/02/17 04:36:10;;;;;;;6.90;5.00;;;13.90;70.60;15.70;102469.00;;;;5033675;28;20281;-76
2024/02/17 04:38:38;;;;;;;8.43;5.10;;;13.90;70.60;15.70;102475.00;;;;5032523;28;20725;-76
2024/02/17 04:41:05;;;;;;;8.55;4.82;;;13.90;70.70;15.70;102476.00;;;;5040965;28;20576;-76
2024/02/17 04:43:34;;;;;;;6.75;5.05;;;13.90;70.70;15.70;102482.00;;;;5041864;28;20664;-76
2024/02/17 04:46:01;;;;;;;6.80;5.28;;;13.90;70.70;15.70;102493.00;;;;5043825;28;20195;-76
2024/02/17 04:48:28;;;;;;;9.18;5.47;;;13.90;70.70;15.70;102501.00;;;;5032176;28;20232;-76
2024/02/17 04:50:55;;;;;;;7.13;4.78;;;13.90;70.70;15.70;102506.00;;;;5032120;28;20207;-77
2024/02/17 04:53:22;;;;;;;8.43;4.72;;;13.90;70.70;15.70;102508.00;;;;5032595;28;20673;-77
2024/02/17 04:55:49;;;;;;;6.05;4.93;;;13.90;70.70;15.70;102499.00;;;;5041717;28;20302;-77
2024/02/17 04:58:17;;;;;;;5.70;4.80;;;13.90;70.70;15.60;102506.00;;;;5042286;28;20667;-76
2024/02/17 05:00:47;;;;;;;7.55;4.45;;;13.90;70.80;15.60;102515.00;;;;5048319;28;20326;-77
2024/02/17 05:03:14;;;;;;;9.43;5.35;;;13.90;70.80;15.60;102514.00;;;;5040800;28;20235;-77
2024/02/17 05:05:43;;;;;;;10.80;5.13;;;13.90;70.80;15.60;102514.00;;;;5042412;28;20206;-77
2024/02/17 05:08:10;;;;;;;8.00;5.25;;;13.90;70.80;15.70;102519.00;;;;5041188;28;20326;-77
2024/02/17 05:10:39;;;;;;;6.85;5.18;;;13.90;70.80;15.60;102526.00;;;;5032511;28;20290;-77
2024/02/17 05:13:06;;;;;;;8.93;5.35;;;13.90;70.80;15.60;102527.00;;;;5031924;28;20669;-77
2024/02/17 05:15:33;;;;;;;5.55;4.45;;;13.90;70.80;15.60;102532.00;;;;5034897;28;20200;-77
2024/02/17 05:18:02;;;;;;;7.72;5.28;;;13.90;70.80;15.60;102533.00;;;;5036374;28;20250;-77
2024/02/17 05:20:29;;;;;;;7.53;5.28;;;13.80;70.70;15.60;102531.00;;;;5045961;28;20527;-77
2024/02/17 05:22:57;;;;;;;9.27;5.35;;;13.90;70.80;15.60;102546.00;;;;5030001;28;20289;-76
2024/02/17 05:25:24;;;;;;;7.07;5.00;;;13.90;70.90;15.60;102546.00;;;;5041678;28;20203;-77
2024/02/17 05:27:51;;;;;;;5.75;4.70;;;13.90;70.90;15.60;102550.00;;;;5031055;28;20204;-77
2024/02/17 05:30:18;;;;;;;5.82;4.80;;;13.80;70.80;15.60;102546.00;;;;5031340;28;20224;-77
2024/02/17 05:32:46;;;;;;;6.03;4.40;;;13.90;70.90;15.60;102552.00;;;;5030916;28;20272;-76
2024/02/17 05:35:14;;;;;;;6.32;4.78;;;13.90;70.90;15.60;102561.00;;;;5035618;28;20250;-77
2024/02/17 05:37:41;;;;;;;6.90;4.78;;;13.90;70.90;15.60;102564.00;;;;5031255;28;20208;-77
2024/02/17 05:40:11;;;;;;;5.85;4.28;;;13.90;70.90;15.60;102565.00;;;;5031715;28;20645;-77
2024/02/17 05:42:39;;;;;;;7.40;4.78;;;13.90;70.90;15.60;102571.00;;;;5035046;28;20195;-77
2024/02/17 05:45:08;;;;;;;6.55;4.80;;;13.90;70.90;15.60;102575.00;;;;5036714;28;20794;-77
2024/02/17 05:47:35;;;;;;;8.02;4.35;;;13.90;70.80;15.60;102578.00;;;;5033355;28;20204;-77
2024/02/17 05:50:04;;;;;;;8.48;5.22;;;13.90;70.80;15.60;102589.00;;;;5034007;28;20274;-77
2024/02/17 05:52:32;;;;;;;6.20;4.65;;;13.90;70.80;15.60;102595.00;;;;5030853;28;20755;-77
2024/02/17 05:54:59;;;;;;;8.10;4.40;;;13.80;70.80;15.60;102600.00;;;;5030629;28;20741;-77
2024/02/17 05:57:27;;;;;;;6.70;5.13;;;13.90;70.80;15.60;102602.00;;;;5030553;28;20228;-77
2024/02/17 05:59:56;;;;;;;6.00;4.68;;;13.90;70.80;15.60;102610.00;;;;5036739;28;20685;-77
2024/02/17 06:02:23;;;;;;;6.05;4.63;;;13.90;70.80;15.60;102616.00;;;;5029969;28;20758;-76
2024/02/17 06:04:50;;;;;;;8.07;5.25;;;13.90;70.80;15.60;102614.00;;;;5036451;28;20570;-77
2024/02/17 06:07:19;;;;;;;6.30;4.20;;;13.90;70.80;15.60;102611.00;;;;5031000;28;20198;-77
2024/02/17 06:09:47;;;;;;;6.40;4.63;;;13.80;70.70;15.50;102614.00;;;;5038096;28;20200;-77
2024/02/17 06:12:15;;;;;;;7.63;4.97;;;13.80;70.70;15.50;102614.00;;;;5034381;28;20637;-77
2024/02/17 06:14:42;;;;;;;7.15;5.57;;;13.80;70.70;15.50;102605.00;;;;5034357;28;20609;-78
2024/02/17 06:17:10;;;;;;;9.45;5.35;;;13.80;70.70;15.50;102619.00;;;;5033191;28;20184;-77
2024/02/17 06:22:23;;;;;;;8.52;4.35;;;13.80;70.80;15.50;102620.00;;;;5035149;28;20227;-78
2024/02/17 06:24:51;;;;;;;11.73;5.00;;;13.80;70.90;15.40;102621.00;;;;5037637;28;20204;-76
2024/02/17 06:27:18;;;;;;;7.13;5.10;;;13.80;70.90;15.50;102621.00;;;;5035109;28;20279;-78
2024/02/17 06:29:49;;;;;;;8.23;4.68;;;13.80;70.90;15.50;102629.00;;;;5035496;28;20251;-77
2024/02/17 06:32:16;;;;;;;6.38;4.60;;;13.80;70.90;15.50;102635.00;;;;5040322;28;20731;-77
2024/02/17 06:34:44;;;;;;;8.02;4.78;;;13.80;70.90;15.50;102628.00;;;;5035851;28;20227;-78
2024/02/17 06:37:14;;;;;;;10.23;3.78;;;13.80;71.00;15.50;102642.00;;;;5035506;28;20198;-77
2024/02/17 06:39:43;;;;;;;7.78;4.45;;;13.80;71.00;15.50;102640.00;;;;5033105;28;20212;-77
2024/02/17 06:42:12;;;;;;;8.00;4.53;;;13.80;71.00;15.50;102640.00;;;;5030725;28;20315;-77
2024/02/17 06:44:41;;;;;;;7.90;4.88;;;13.80;71.00;15.50;102641.00;;;;5030858;28;20193;-77
2024/02/17 06:47:10;;;;;;;7.82;4.72;;;13.80;71.00;15.50;102651.00;;;;5032951;28;20201;-78
2024/02/17 06:49:39;;;;;;;9.20;3.97;;;13.80;71.10;15.50;102652.00;;;;5031230;28;20189;-78
2024/02/17 06:52:06;;;;;;;7.47;5.15;;;13.80;71.00;15.60;102654.00;;;;5030825;28;20674;-78
2024/02/17 06:54:47;;;;;;;7.03;4.60;;;13.80;71.00;15.40;102650.00;;;;5038894;28;20232;-78
2024/02/17 06:57:24;;;;;;;6.70;4.35;;;13.80;71.00;15.50;102652.00;;;;5041336;28;20195;-77
2024/02/17 06:59:52;;;;;;;8.98;4.60;;;13.80;71.00;15.60;102657.00;;;;5042398;28;20245;-78
2024/02/17 07:02:23;;;;;;;9.05;4.63;;;13.80;70.90;15.50;102662.00;;;;5051558;28;20231;-78
2024/02/17 07:04:55;;;;;;;8.52;4.90;;;13.80;71.00;15.50;102668.00;;;;5042247;28;20204;-78
2024/02/17 07:07:25;;;;;;;6.53;4.55;;;13.80;70.90;15.50;102672.00;;;;5037741;28;20208;-78
2024/02/17 07:09:56;;;;;;;7.50;4.25;;;13.80;70.90;15.60;102676.00;;;;5047712;28;20277;-77
2024/02/17 07:12:33;;;;;;;11.02;4.75;;;13.80;70.90;15.50;102667.00;;;;5039418;28;20203;-77
2024/02/17 07:15:04;;;;;;;6.50;4.43;;;13.80;70.90;15.60;102678.00;;;;5033107;28;20543;-77
2024/02/17 07:17:32;;;;;;;8.13;4.93;;;13.80;70.90;15.60;102682.00;;;;5033454;28;20653;-78
2024/02/17 07:20:04;;;;;;;6.60;5.03;;;13.80;70.90;15.60;102685.00;;;;5037987;28;20196;-78
2024/02/17 07:22:35;;;;;;;8.90;4.47;;;13.80;70.90;15.60;102688.00;;;;5037367;28;20343;-78
2024/02/17 07:25:12;;;;;;;6.22;4.18;;;13.80;70.90;15.60;102709.00;;;;5036199;28;20207;-78
2024/02/17 07:27:46;;;;;;;7.25;4.63;;;13.80;71.00;15.60;102709.00;;;;5037880;28;20591;-78
2024/02/17 07:30:22;;;;;;;7.90;4.80;;;13.80;71.00;15.60;102712.00;;;;5035055;28;20250;-78
2024/02/17 07:32:56;;;;;;;6.00;3.95;;;13.80;71.00;15.60;102727.00;;;;5034812;28;20203;-78
2024/02/17 07:35:25;;;;;;;6.15;4.10;;;13.80;71.10;15.60;102722.00;;;;5044610;28;20192;-77
2024/02/17 07:37:53;;;;;;;6.65;4.07;;;13.90;71.20;15.60;102736.00;;;;5038434;28;20223;-79
2024/02/17 07:40:22;;;;;;;5.97;3.97;;;13.90;71.20;15.60;102730.00;;;;5035163;28;20274;-78
2024/02/17 07:42:51;;;;;;;12.25;4.90;;;13.90;71.30;15.70;102734.00;;;;5035837;28;20238;-78
2024/02/17 07:45:18;;;;;;;7.45;4.75;;;13.90;71.20;15.70;102745.00;;;;5035176;28;20386;-78
2024/02/17 07:47:46;;;;;;;9.23;4.57;;;13.90;71.20;15.70;102744.00;;;;5042500;28;20292;-78
2024/02/17 07:50:15;;;;;;;9.23;4.82;;;13.90;71.30;15.70;102750.00;;;;5052633;28;20203;-79
2024/02/17 07:52:47;;;;;;;8.13;5.00;;;13.90;71.30;15.80;102761.00;;;;5042389;28;20243;-79
2024/02/17 07:55:18;;;;;;;7.82;4.50;;;14.00;71.40;15.70;102766.00;;;;5041436;28;20243;-78
2024/02/17 07:57:56;;;;;;;9.98;4.20;;;14.00;71.40;15.80;102772.00;;;;5042022;28;20205;-78
2024/02/17 08:00:24;;;;;;;10.18;4.95;;;14.00;71.40;15.80;102768.00;;;;5043162;28;20288;-77
2024/02/17 08:02:53;;;;;;;8.30;4.82;;;14.10;71.40;15.90;102778.00;;;;5046355;28;20237;-79
2024/02/17 08:05:21;;;;;;;8.25;4.55;;;14.10;71.40;15.90;102778.00;;;;5034850;28;20208;-78
2024/02/17 08:07:55;;;;;;;9.02;4.53;;;14.10;71.40;15.90;102777.00;;;;5033024;28;20200;-79
2024/02/17 08:10:23;;;;;;;7.97;5.10;;;14.10;71.40;15.90;102782.00;;;;5040465;28;20202;-78
2024/02/17 08:12:53;;;;;;;6.78;4.60;;;14.20;71.50;16.00;102786.00;;;;5036250;28;20638;-78
2024/02/17 08:15:21;;;;;;;8.20;5.00;;;14.20;71.50;16.00;102788.00;;;;5040871;28;20249;-79
2024/02/17 08:17:49;;;;;;;8.10;4.93;;;14.20;71.50;16.00;102795.00;;;;5035307;28;20725;-77
2024/02/17 08:20:21;;;;;;;8.48;4.57;;;14.20;71.50;16.00;102797.00;;;;5039449;28;20196;-78
2024/02/17 08:22:52;;;;;;;6.97;4.07;;;14.30;71.50;16.10;102799.00;;;;5045158;28;20673;-78
2024/02/17 08:25:24;;;;;;;11.00;4.55;;;14.30;71.50;16.10;102795.00;;;;5042564;28;20197;-78
2024/02/17 08:27:55;;;;;;;7.60;4.63;;;14.40;71.60;16.10;102799.00;;;;5040364;28;20606;-79
2024/02/17 08:30:24;;;;;;;8.93;4.55;;;14.40;71.50;16.20;102812.00;;;;5035473;28;20265;-79
2024/02/17 08:32:55;;;;;;;9.25;3.92;;;14.40;71.40;16.20;102811.00;;;;5039837;28;20210;-78
2024/02/17 08:35:26;;;;;;;6.40;4.13;;;14.40;71.40;16.30;102820.00;;;;5043471;28;20218;-79
2024/02/17 08:37:55;;;;;;;7.75;4.80;;;14.50;71.40;16.30;102827.00;;;;5033541;28;20691;-78
2024/02/17 08:40:26;;;;;;;8.52;4.75;;;14.50;71.40;16.40;102826.00;;;;5043560;28;20641;-78
2024/02/17 08:42:57;;;;;;;8.80;4.88;;;14.60;71.50;16.40;102825.00;;;;5032567;28;20637;-76
2024/02/17 08:45:29;;;;;;;8.45;4.95;;;14.60;71.40;16.40;102832.00;;;;5031041;28;20642;-79
2024/02/17 08:47:57;;;;;;;8.32;4.78;;;14.60;71.30;16.50;102841.00;;;;5050176;28;20207;-78
2024/02/17 08:50:26;;;;;;;9.25;4.57;;;14.60;71.20;16.50;102838.00;;;;5034292;28;20254;-79
2024/02/17 08:52:54;;;;;;;8.68;4.82;;;14.70;71.20;16.50;102824.00;;;;5032858;28;20196;-78
2024/02/17 08:55:24;;;;;;;7.60;4.68;;;14.70;71.20;16.50;102831.00;;;;5038593;28;20693;-78
2024/02/17 08:57:55;;;;;;;8.45;4.68;;;14.80;71.20;16.50;102831.00;;;;5032294;28;20207;-78
2024/02/17 09:00:24;;;;;;;12.70;6.30;;;14.80;71.20;16.60;102833.00;;;;5043142;28;20196;-78
2024/02/17 09:02:52;;;;;;;6.15;4.13;;;14.80;71.10;16.60;102830.00;;;;5045349;28;20232;-78
2024/02/17 09:05:22;;;;;;;9.45;5.35;;;14.90;71.20;16.60;102845.00;;;;5039868;28;20620;-78
2024/02/17 09:07:50;;;;;;;8.85;5.05;;;14.90;71.10;16.70;102853.00;;;;5033697;28;20250;-79
2024/02/17 09:10:18;;;;;;;8.77;4.63;;;14.90;71.00;16.70;102850.00;;;;5041182;28;20211;-78
2024/02/17 09:12:46;;;;;;;9.05;5.78;;;14.90;71.00;16.70;102845.00;;;;5030993;28;20211;-76
2024/02/17 09:15:14;;;;;;;8.50;4.85;;;15.00;70.90;16.80;102843.00;;;;5040159;28;20199;-78
2024/02/17 09:17:41;;;;;;;6.53;5.03;;;15.00;71.00;16.80;102848.00;;;;5028869;28;20227;-78
2024/02/17 09:20:10;;;;;;;6.63;4.38;;;15.00;71.00;16.80;102859.00;;;;5032882;28;20279;-79
2024/02/17 09:22:37;;;;;;;12.27;5.38;;;15.00;70.90;16.90;102861.00;;;;5036740;28;20310;-78
2024/02/17 09:25:06;;;;;;;7.13;4.97;;;15.10;71.00;16.90;102858.00;;;;5040937;28;20319;-80
2024/02/17 09:27:33;;;;;;;8.77;5.18;;;15.10;71.00;16.90;102857.00;;;;5042825;28;20294;-78
2024/02/17 09:30:00;;;;;;;9.38;4.95;;;15.20;70.90;17.00;102859.00;;;;5035050;28;20661;-78
2024/02/17 09:32:28;;;;;;;10.77;5.28;;;15.20;70.90;17.00;102869.00;;;;5044656;28;20732;-78
2024/02/17 09:34:56;;;;;;;8.77;5.38;;;15.20;70.80;17.00;102874.00;;;;5040260;28;20724;-78
2024/02/17 09:37:23;;;;;;;9.18;5.82;;;15.20;70.70;17.00;102870.00;;;;5032800;28;20726;-78
2024/02/17 09:39:50;;;;;;;9.10;5.88;;;15.30;70.60;17.10;102878.00;;;;5043198;28;20231;-79
2024/02/17 09:42:17;;;;;;;9.73;5.72;;;15.30;70.50;17.10;102883.00;;;;5032770;28;20576;-78
2024/02/17 09:44:46;;;;;;;9.10;5.13;;;15.40;70.60;17.10;102879.00;;;;5041495;28;20201;-78
2024/02/17 09:47:13;;;;;;;7.93;5.25;;;15.40;70.90;17.10;102874.00;;;;5043337;28;20196;-78
2024/02/17 09:49:43;;;;;;;7.72;5.35;;;15.40;70.40;17.10;102882.00;;;;5038869;28;20192;-79
2024/02/17 09:52:11;;;;;;;6.15;4.80;;;15.40;70.50;17.20;102889.00;;;;5049427;28;20275;-78
2024/02/17 09:54:39;;;;;;;12.02;5.20;;;15.50;71.10;17.20;102885.00;;;;5048677;28;20231;-78
2024/02/17 09:57:07;;;;;;;8.00;5.47;;;15.50;70.40;17.20;102896.00;;;;5043156;28;20279;-78
2024/02/17 09:59:35;;;;;;;8.15;5.78;;;15.50;70.30;17.30;102886.00;;;;5042632;28;20669;-78
2024/02/17 10:02:03;;;;;;;6.97;4.75;;;15.50;70.30;17.30;102897.00;;;;5045686;28;20315;-79
2024/02/17 10:04:30;;;;;;;11.00;5.40;;;15.50;70.30;17.30;102889.00;;;;5050486;28;20195;-78
2024/02/17 10:07:03;;;;;;;7.45;5.18;;;15.60;70.30;17.30;102897.00;;;;5043150;28;20291;-77
2024/02/17 10:09:35;;;;;;;8.02;5.20;;;15.60;70.10;17.30;102898.00;;;;5035122;28;20257;-78
2024/02/17 10:12:04;;;;;;;6.93;4.85;;;15.60;70.10;17.40;102901.00;;;;5032214;28;20286;-79
2024/02/17 10:14:32;;;;;;;7.68;5.43;;;15.70;70.20;17.40;102903.00;;;;5032028;28;20238;-77
2024/02/17 10:16:59;;;;;;;7.97;4.97;;;15.60;70.20;17.40;102895.00;;;;5037422;28;20851;-77
2024/02/17 10:19:27;;;;;;;12.18;5.65;;;15.70;70.00;17.50;102903.00;;;;5035275;28;20568;-77
2024/02/17 10:21:55;;;;;;;5.95;4.90;;;15.70;70.10;17.50;102902.00;;;;5050079;28;20301;-78
2024/02/17 10:24:23;;;;;;;7.45;6.45;;;15.70;70.20;17.60;102903.00;;;;5048949;28;20200;-77
2024/02/17 10:26:54;;;;;;;10.95;4.88;;;15.80;70.20;17.60;102901.00;;;;5048581;28;20203;-78
2024/02/17 10:29:21;;;;;;;7.93;5.20;;;15.80;70.10;17.70;102905.00;;;;5050025;28;20199;-77
2024/02/17 10:31:49;;;;;;;8.80;5.32;;;15.90;70.20;17.70;102912.00;;;;5053369;28;20291;-78
2024/02/17 10:34:16;;;;;;;7.80;5.32;;;15.90;70.20;17.70;102917.00;;;;5054360;28;20188;-78
2024/02/17 10:36:43;;;;;;;7.22;4.63;;;16.00;70.10;17.80;102920.00;;;;5037381;28;20311;-79
2024/02/17 10:39:12;;;;;;;11.00;5.72;;;15.90;70.00;17.80;102922.00;;;;5036541;28;20223;-78
2024/02/17 10:41:40;;;;;;;9.43;5.18;;;16.00;70.00;17.80;102930.00;;;;5037203;28;20196;-78
2024/02/17 10:44:08;;;;;;;7.28;4.43;;;16.00;69.90;17.90;102929.00;;;;5036481;28;20288;-78
2024/02/17 10:46:37;;;;;;;7.10;4.95;;;16.10;69.90;17.90;102935.00;;;;5036941;28;20379;-79
2024/02/17 10:49:14;;;;;;;7.80;4.53;;;16.10;69.90;17.90;102941.00;;;;5055208;28;20274;-79
2024/02/17 10:51:50;;;;;;;7.13;5.00;;;16.10;69.90;17.90;102942.00;;;;5051791;28;20282;-79
2024/02/17 10:54:27;;;;;;;5.13;3.90;;;16.20;69.90;18.00;102944.00;;;;5034382;28;20314;-77